sensor_id;sensor_type;location;lat;lon;timestamp;P1;durP1;ratioP1;P2;durP2;ratioP2
37937;SDS011;23763;48.130;11.602;2022-10-17T00:01:11;9.45;;;7.10;;
37937;SDS011;23763;48.130;11.602;2022-10-17T00:03:38;7.28;;;6.57;;
37937;SDS011;23763;48.130;11.602;2022-10-17T00:06:12;7.32;;;6.82;;
37937;SDS011;23763;48.130;11.602;2022-10-17T00:08:38;8.43;;;7.28;;
37937;SDS011;23763;48.130;11.602;2022-10-17T00:11:07;7.65;;;7.15;;
37937;SDS011;23763;48.130;11.602;2022-10-17T00:13:44;7.38;;;6.78;;
37937;SDS011;23763;48.130;11.602;2022-10-17T00:16:11;7.68;;;7.07;;
37937;SDS011;23763;48.130;11.602;2022-10-17T00:18:37;7.60;;;6.82;;
37937;SDS011;23763;48.130;11.602;2022-10-17T00:21:03;7.55;;;6.78;;
37937;SDS011;23763;48.130;11.602;2022-10-17T00:23:28;7.00;;;6.60;;
37937;SDS011;23763;48.130;11.602;2022-10-17T00:25:58;7.80;;;6.93;;
37937;SDS011;23763;48.130;11.602;2022-10-17T00:28:24;8.80;;;7.35;;
37937;SDS011;23763;48.130;11.602;2022-10-17T00:31:00;7.30;;;6.75;;
37937;SDS011;23763;48.130;11.602;2022-10-17T00:33:29;7.38;;;6.68;;
37937;SDS011;23763;48.130;11.602;2022-10-17T00:38:52;8.10;;;6.72;;
37937;SDS011;23763;48.130;11.602;2022-10-17T00:41:24;6.55;;;6.15;;
37937;SDS011;23763;48.130;11.602;2022-10-17T00:46:27;7.43;;;6.93;;
37937;SDS011;23763;48.130;11.602;2022-10-17T00:48:55;7.40;;;6.80;;
37937;SDS011;23763;48.130;11.602;2022-10-17T00:51:24;7.00;;;6.47;;
37937;SDS011;23763;48.130;11.602;2022-10-17T00:53:56;7.80;;;7.10;;
37937;SDS011;23763;48.130;11.602;2022-10-17T00:56:23;7.57;;;7.03;;
37937;SDS011;23763;48.130;11.602;2022-10-17T00:58:48;7.68;;;6.95;;
37937;SDS011;23763;48.130;11.602;2022-10-17T01:01:14;7.15;;;6.57;;
37937;SDS011;23763;48.130;11.602;2022-10-17T01:03:40;8.88;;;6.93;;
37937;SDS011;23763;48.130;11.602;2022-10-17T01:06:05;7.97;;;7.28;;
37937;SDS011;23763;48.130;11.602;2022-10-17T01:08:31;7.30;;;6.70;;
37937;SDS011;23763;48.130;11.602;2022-10-17T01:13:47;9.80;;;6.43;;
37937;SDS011;23763;48.130;11.602;2022-10-17T01:16:18;6.85;;;6.35;;
37937;SDS011;23763;48.130;11.602;2022-10-17T01:19:01;6.22;;;5.93;;
37937;SDS011;23763;48.130;11.602;2022-10-17T01:38:14;7.35;;;6.05;;
37937;SDS011;23763;48.130;11.602;2022-10-17T01:41:05;7.60;;;6.90;;
37937;SDS011;23763;48.130;11.602;2022-10-17T01:43:46;7.03;;;6.53;;
37937;SDS011;23763;48.130;11.602;2022-10-17T01:46:21;7.25;;;6.75;;
37937;SDS011;23763;48.130;11.602;2022-10-17T01:48:53;6.70;;;6.30;;
37937;SDS011;23763;48.130;11.602;2022-10-17T01:51:23;6.93;;;6.47;;
37937;SDS011;23763;48.130;11.602;2022-10-17T01:56:30;7.13;;;6.57;;
37937;SDS011;23763;48.130;11.602;2022-10-17T01:59:11;7.53;;;6.50;;
37937;SDS011;23763;48.130;11.602;2022-10-17T02:01:43;6.53;;;6.07;;
37937;SDS011;23763;48.130;11.602;2022-10-17T02:04:11;6.82;;;6.38;;
37937;SDS011;23763;48.130;11.602;2022-10-17T02:06:36;7.25;;;6.00;;
37937;SDS011;23763;48.130;11.602;2022-10-17T02:09:21;7.30;;;6.60;;
37937;SDS011;23763;48.130;11.602;2022-10-17T02:17:55;6.57;;;6.18;;
37937;SDS011;23763;48.130;11.602;2022-10-17T02:28:51;6.35;;;5.80;;
37937;SDS011;23763;48.130;11.602;2022-10-17T02:31:42;6.78;;;6.22;;
37937;SDS011;23763;48.130;11.602;2022-10-17T02:34:15;8.30;;;5.93;;
37937;SDS011;23763;48.130;11.602;2022-10-17T02:36:48;6.80;;;6.20;;
37937;SDS011;23763;48.130;11.602;2022-10-17T02:39:16;6.45;;;6.05;;
37937;SDS011;23763;48.130;11.602;2022-10-17T02:41:48;7.50;;;6.60;;
37937;SDS011;23763;48.130;11.602;2022-10-17T02:44:15;7.32;;;6.72;;
37937;SDS011;23763;48.130;11.602;2022-10-17T02:46:41;7.15;;;6.30;;
37937;SDS011;23763;48.130;11.602;2022-10-17T02:49:22;7.03;;;5.85;;
37937;SDS011;23763;48.130;11.602;2022-10-17T02:54:43;6.03;;;5.65;;
37937;SDS011;23763;48.130;11.602;2022-10-17T02:59:51;6.45;;;5.95;;
37937;SDS011;23763;48.130;11.602;2022-10-17T03:02:17;6.75;;;6.32;;
37937;SDS011;23763;48.130;11.602;2022-10-17T03:04:44;6.18;;;5.72;;
37937;SDS011;23763;48.130;11.602;2022-10-17T03:07:10;6.68;;;6.28;;
37937;SDS011;23763;48.130;11.602;2022-10-17T03:09:36;6.25;;;5.93;;
37937;SDS011;23763;48.130;11.602;2022-10-17T03:12:02;6.28;;;5.75;;
37937;SDS011;23763;48.130;11.602;2022-10-17T03:14:28;6.85;;;6.35;;
37937;SDS011;23763;48.130;11.602;2022-10-17T03:16:53;6.88;;;6.25;;
37937;SDS011;23763;48.130;11.602;2022-10-17T03:19:19;6.65;;;6.25;;
37937;SDS011;23763;48.130;11.602;2022-10-17T03:21:44;6.70;;;5.90;;
37937;SDS011;23763;48.130;11.602;2022-10-17T03:24:10;7.00;;;6.50;;
37937;SDS011;23763;48.130;11.602;2022-10-17T03:26:35;6.53;;;6.22;;
37937;SDS011;23763;48.130;11.602;2022-10-17T03:29:01;7.10;;;6.70;;
37937;SDS011;23763;48.130;11.602;2022-10-17T03:31:27;7.47;;;6.75;;
37937;SDS011;23763;48.130;11.602;2022-10-17T03:33:53;7.70;;;7.00;;
37937;SDS011;23763;48.130;11.602;2022-10-17T03:36:19;8.80;;;6.57;;
37937;SDS011;23763;48.130;11.602;2022-10-17T03:38:45;7.50;;;6.78;;
37937;SDS011;23763;48.130;11.602;2022-10-17T03:41:11;8.15;;;6.53;;
37937;SDS011;23763;48.130;11.602;2022-10-17T03:43:37;7.97;;;6.97;;
37937;SDS011;23763;48.130;11.602;2022-10-17T03:46:03;7.45;;;6.22;;
37937;SDS011;23763;48.130;11.602;2022-10-17T03:48:30;9.57;;;6.25;;
37937;SDS011;23763;48.130;11.602;2022-10-17T03:51:00;6.85;;;6.45;;
37937;SDS011;23763;48.130;11.602;2022-10-17T03:53:28;6.53;;;6.13;;
37937;SDS011;23763;48.130;11.602;2022-10-17T03:55:53;8.50;;;6.35;;
37937;SDS011;23763;48.130;11.602;2022-10-17T03:58:19;6.95;;;6.45;;
37937;SDS011;23763;48.130;11.602;2022-10-17T04:00:45;6.38;;;5.97;;
37937;SDS011;23763;48.130;11.602;2022-10-17T04:03:11;7.20;;;6.60;;
37937;SDS011;23763;48.130;11.602;2022-10-17T04:05:36;6.70;;;6.10;;
37937;SDS011;23763;48.130;11.602;2022-10-17T04:08:02;7.30;;;6.65;;
37937;SDS011;23763;48.130;11.602;2022-10-17T04:10:27;7.35;;;6.72;;
37937;SDS011;23763;48.130;11.602;2022-10-17T04:12:53;7.00;;;6.60;;
37937;SDS011;23763;48.130;11.602;2022-10-17T04:15:19;7.47;;;6.85;;
37937;SDS011;23763;48.130;11.602;2022-10-17T04:17:44;7.20;;;6.70;;
37937;SDS011;23763;48.130;11.602;2022-10-17T04:20:10;8.52;;;6.70;;
37937;SDS011;23763;48.130;11.602;2022-10-17T04:22:36;7.05;;;6.53;;
37937;SDS011;23763;48.130;11.602;2022-10-17T04:25:02;7.47;;;6.70;;
37937;SDS011;23763;48.130;11.602;2022-10-17T04:27:28;7.47;;;6.97;;
37937;SDS011;23763;48.130;11.602;2022-10-17T04:29:53;7.57;;;6.90;;
37937;SDS011;23763;48.130;11.602;2022-10-17T04:32:19;7.00;;;6.60;;
37937;SDS011;23763;48.130;11.602;2022-10-17T04:34:47;8.07;;;7.47;;
37937;SDS011;23763;48.130;11.602;2022-10-17T04:37:14;8.05;;;7.50;;
37937;SDS011;23763;48.130;11.602;2022-10-17T04:39:39;7.90;;;7.20;;
37937;SDS011;23763;48.130;11.602;2022-10-17T04:42:05;8.23;;;7.50;;
37937;SDS011;23763;48.130;11.602;2022-10-17T04:44:31;8.70;;;7.97;;
37937;SDS011;23763;48.130;11.602;2022-10-17T04:46:58;7.60;;;7.10;;
37937;SDS011;23763;48.130;11.602;2022-10-17T04:49:23;8.13;;;7.45;;
37937;SDS011;23763;48.130;11.602;2022-10-17T04:51:49;8.13;;;7.35;;
37937;SDS011;23763;48.130;11.602;2022-10-17T04:54:15;8.00;;;7.50;;
37937;SDS011;23763;48.130;11.602;2022-10-17T04:56:41;8.07;;;7.57;;
37937;SDS011;23763;48.130;11.602;2022-10-17T04:59:06;8.18;;;7.43;;
37937;SDS011;23763;48.130;11.602;2022-10-17T05:01:32;8.10;;;7.32;;
37937;SDS011;23763;48.130;11.602;2022-10-17T05:03:58;9.15;;;7.40;;
37937;SDS011;23763;48.130;11.602;2022-10-17T05:06:24;7.93;;;7.32;;
37937;SDS011;23763;48.130;11.602;2022-10-17T05:08:52;8.05;;;7.45;;
37937;SDS011;23763;48.130;11.602;2022-10-17T05:11:19;8.05;;;7.50;;
37937;SDS011;23763;48.130;11.602;2022-10-17T05:13:54;7.50;;;7.10;;
37937;SDS011;23763;48.130;11.602;2022-10-17T05:16:21;6.50;;;6.13;;
37937;SDS011;23763;48.130;11.602;2022-10-17T05:18:48;8.05;;;7.35;;
37937;SDS011;23763;48.130;11.602;2022-10-17T05:21:15;8.30;;;7.50;;
37937;SDS011;23763;48.130;11.602;2022-10-17T05:23:41;8.40;;;7.80;;
37937;SDS011;23763;48.130;11.602;2022-10-17T05:26:06;9.02;;;8.00;;
37937;SDS011;23763;48.130;11.602;2022-10-17T05:28:32;8.48;;;7.78;;
37937;SDS011;23763;48.130;11.602;2022-10-17T05:31:01;8.40;;;7.63;;
37937;SDS011;23763;48.130;11.602;2022-10-17T05:33:30;8.18;;;7.53;;
37937;SDS011;23763;48.130;11.602;2022-10-17T05:35:57;9.98;;;7.90;;
37937;SDS011;23763;48.130;11.602;2022-10-17T05:38:22;8.48;;;7.85;;
37937;SDS011;23763;48.130;11.602;2022-10-17T05:40:48;11.13;;;8.43;;
37937;SDS011;23763;48.130;11.602;2022-10-17T05:43:14;11.05;;;8.98;;
37937;SDS011;23763;48.130;11.602;2022-10-17T05:45:40;8.85;;;8.20;;
37937;SDS011;23763;48.130;11.602;2022-10-17T05:48:06;9.30;;;8.40;;
37937;SDS011;23763;48.130;11.602;2022-10-17T05:50:33;8.68;;;8.05;;
37937;SDS011;23763;48.130;11.602;2022-10-17T05:52:59;10.57;;;8.30;;
37937;SDS011;23763;48.130;11.602;2022-10-17T05:55:24;9.05;;;8.07;;
37937;SDS011;23763;48.130;11.602;2022-10-17T05:57:50;11.93;;;8.98;;
37937;SDS011;23763;48.130;11.602;2022-10-17T06:00:17;12.57;;;9.57;;
37937;SDS011;23763;48.130;11.602;2022-10-17T06:02:44;13.98;;;9.40;;
37937;SDS011;23763;48.130;11.602;2022-10-17T06:05:10;10.00;;;8.63;;
37937;SDS011;23763;48.130;11.602;2022-10-17T06:07:36;11.93;;;8.55;;
37937;SDS011;23763;48.130;11.602;2022-10-17T06:10:03;13.02;;;8.52;;
37937;SDS011;23763;48.130;11.602;2022-10-17T06:12:29;9.73;;;8.00;;
37937;SDS011;23763;48.130;11.602;2022-10-17T06:14:54;12.55;;;8.32;;
37937;SDS011;23763;48.130;11.602;2022-10-17T06:17:20;14.82;;;9.63;;
37937;SDS011;23763;48.130;11.602;2022-10-17T06:19:46;9.93;;;9.13;;
37937;SDS011;23763;48.130;11.602;2022-10-17T06:22:11;10.80;;;9.32;;
37937;SDS011;23763;48.130;11.602;2022-10-17T06:24:37;10.00;;;8.90;;
37937;SDS011;23763;48.130;11.602;2022-10-17T06:27:10;9.60;;;8.80;;
37937;SDS011;23763;48.130;11.602;2022-10-17T06:29:36;15.88;;;8.88;;
37937;SDS011;23763;48.130;11.602;2022-10-17T06:32:01;10.60;;;9.45;;
37937;SDS011;23763;48.130;11.602;2022-10-17T06:34:27;14.40;;;9.43;;
37937;SDS011;23763;48.130;11.602;2022-10-17T06:36:53;11.10;;;8.80;;
37937;SDS011;23763;48.130;11.602;2022-10-17T06:39:18;17.98;;;8.52;;
37937;SDS011;23763;48.130;11.602;2022-10-17T06:41:44;9.82;;;8.90;;
37937;SDS011;23763;48.130;11.602;2022-10-17T06:44:10;9.30;;;8.43;;
37937;SDS011;23763;48.130;11.602;2022-10-17T06:46:36;8.90;;;8.20;;
37937;SDS011;23763;48.130;11.602;2022-10-17T06:49:03;8.93;;;8.18;;
37937;SDS011;23763;48.130;11.602;2022-10-17T06:51:30;9.05;;;8.32;;
37937;SDS011;23763;48.130;11.602;2022-10-17T06:53:57;9.00;;;8.05;;
37937;SDS011;23763;48.130;11.602;2022-10-17T06:56:22;8.95;;;8.25;;
37937;SDS011;23763;48.130;11.602;2022-10-17T06:58:48;9.27;;;8.43;;
37937;SDS011;23763;48.130;11.602;2022-10-17T07:01:15;8.48;;;7.65;;
37937;SDS011;23763;48.130;11.602;2022-10-17T07:03:41;9.75;;;8.93;;
37937;SDS011;23763;48.130;11.602;2022-10-17T07:06:07;10.75;;;9.75;;
37937;SDS011;23763;48.130;11.602;2022-10-17T07:08:35;10.13;;;9.07;;
37937;SDS011;23763;48.130;11.602;2022-10-17T07:11:08;10.57;;;8.20;;
37937;SDS011;23763;48.130;11.602;2022-10-17T07:13:38;8.75;;;7.95;;
37937;SDS011;23763;48.130;11.602;2022-10-17T07:16:03;8.77;;;7.80;;
37937;SDS011;23763;48.130;11.602;2022-10-17T07:18:29;11.35;;;7.85;;
37937;SDS011;23763;48.130;11.602;2022-10-17T07:20:55;8.90;;;8.30;;
37937;SDS011;23763;48.130;11.602;2022-10-17T07:23:21;11.45;;;8.75;;
37937;SDS011;23763;48.130;11.602;2022-10-17T07:25:47;8.82;;;8.00;;
37937;SDS011;23763;48.130;11.602;2022-10-17T07:28:13;11.13;;;8.35;;
37937;SDS011;23763;48.130;11.602;2022-10-17T07:30:40;10.35;;;7.95;;
37937;SDS011;23763;48.130;11.602;2022-10-17T07:33:05;9.00;;;8.15;;
37937;SDS011;23763;48.130;11.602;2022-10-17T07:35:32;8.93;;;8.23;;
37937;SDS011;23763;48.130;11.602;2022-10-17T07:37:57;9.23;;;8.32;;
37937;SDS011;23763;48.130;11.602;2022-10-17T07:40:23;9.25;;;8.55;;
37937;SDS011;23763;48.130;11.602;2022-10-17T07:42:48;9.63;;;8.75;;
37937;SDS011;23763;48.130;11.602;2022-10-17T07:45:14;8.60;;;8.00;;
37937;SDS011;23763;48.130;11.602;2022-10-17T07:47:40;9.13;;;8.43;;
37937;SDS011;23763;48.130;11.602;2022-10-17T07:50:06;9.48;;;8.77;;
37937;SDS011;23763;48.130;11.602;2022-10-17T07:52:32;8.52;;;7.70;;
37937;SDS011;23763;48.130;11.602;2022-10-17T07:54:58;9.20;;;8.40;;
37937;SDS011;23763;48.130;11.602;2022-10-17T07:57:27;9.38;;;8.48;;
37937;SDS011;23763;48.130;11.602;2022-10-17T07:59:53;8.88;;;8.15;;
37937;SDS011;23763;48.130;11.602;2022-10-17T08:02:25;9.00;;;8.05;;
37937;SDS011;23763;48.130;11.602;2022-10-17T08:04:51;8.73;;;7.93;;
37937;SDS011;23763;48.130;11.602;2022-10-17T08:07:18;8.30;;;7.65;;
37937;SDS011;23763;48.130;11.602;2022-10-17T08:09:44;8.52;;;7.95;;
37937;SDS011;23763;48.130;11.602;2022-10-17T08:12:11;8.10;;;7.40;;
37937;SDS011;23763;48.130;11.602;2022-10-17T08:14:39;8.60;;;8.00;;
37937;SDS011;23763;48.130;11.602;2022-10-17T08:17:05;8.50;;;7.90;;
37937;SDS011;23763;48.130;11.602;2022-10-17T08:19:31;8.77;;;8.00;;
37937;SDS011;23763;48.130;11.602;2022-10-17T08:21:56;8.52;;;7.82;;
37937;SDS011;23763;48.130;11.602;2022-10-17T08:24:23;8.80;;;8.00;;
37937;SDS011;23763;48.130;11.602;2022-10-17T08:26:49;9.43;;;8.38;;
37937;SDS011;23763;48.130;11.602;2022-10-17T08:29:15;8.93;;;8.25;;
37937;SDS011;23763;48.130;11.602;2022-10-17T08:31:41;8.70;;;7.95;;
37937;SDS011;23763;48.130;11.602;2022-10-17T08:34:07;8.65;;;8.07;;
37937;SDS011;23763;48.130;11.602;2022-10-17T08:36:32;10.80;;;9.15;;
37937;SDS011;23763;48.130;11.602;2022-10-17T08:38:58;8.82;;;8.00;;
37937;SDS011;23763;48.130;11.602;2022-10-17T08:46:35;10.00;;;8.15;;
37937;SDS011;23763;48.130;11.602;2022-10-17T08:49:05;8.43;;;7.55;;
37937;SDS011;23763;48.130;11.602;2022-10-17T08:51:42;8.50;;;7.90;;
37937;SDS011;23763;48.130;11.602;2022-10-17T08:54:18;8.35;;;7.63;;
37937;SDS011;23763;48.130;11.602;2022-10-17T08:57:07;8.52;;;7.95;;
37937;SDS011;23763;48.130;11.602;2022-10-17T08:59:36;9.15;;;8.27;;
37937;SDS011;23763;48.130;11.602;2022-10-17T09:04:50;8.50;;;7.90;;
37937;SDS011;23763;48.130;11.602;2022-10-17T09:10:14;8.65;;;8.05;;
37937;SDS011;23763;48.130;11.602;2022-10-17T09:15:56;9.35;;;8.38;;
37937;SDS011;23763;48.130;11.602;2022-10-17T09:20:59;7.82;;;7.20;;
37937;SDS011;23763;48.130;11.602;2022-10-17T09:23:40;7.40;;;6.90;;
37937;SDS011;23763;48.130;11.602;2022-10-17T09:26:23;8.45;;;7.80;;
37937;SDS011;23763;48.130;11.602;2022-10-17T09:28:57;8.00;;;7.07;;
37937;SDS011;23763;48.130;11.602;2022-10-17T09:31:25;8.13;;;7.47;;
37937;SDS011;23763;48.130;11.602;2022-10-17T09:33:56;8.35;;;7.75;;
37937;SDS011;23763;48.130;11.602;2022-10-17T09:36:29;7.68;;;7.07;;
37937;SDS011;23763;48.130;11.602;2022-10-17T09:38:59;9.82;;;7.55;;
37937;SDS011;23763;48.130;11.602;2022-10-17T09:41:50;9.00;;;8.25;;
37937;SDS011;23763;48.130;11.602;2022-10-17T09:44:19;7.85;;;7.35;;
37937;SDS011;23763;48.130;11.602;2022-10-17T09:47:12;8.15;;;7.45;;
37937;SDS011;23763;48.130;11.602;2022-10-17T09:49:41;7.65;;;7.05;;
37937;SDS011;23763;48.130;11.602;2022-10-17T09:52:14;8.05;;;7.38;;
37937;SDS011;23763;48.130;11.602;2022-10-17T09:57:12;7.35;;;6.95;;
37937;SDS011;23763;48.130;11.602;2022-10-17T09:59:46;7.05;;;6.45;;
37937;SDS011;23763;48.130;11.602;2022-10-17T10:02:27;8.00;;;7.28;;
37937;SDS011;23763;48.130;11.602;2022-10-17T10:04:58;7.68;;;7.15;;
37937;SDS011;23763;48.130;11.602;2022-10-17T10:07:28;7.68;;;7.18;;
37937;SDS011;23763;48.130;11.602;2022-10-17T10:09:56;10.25;;;7.40;;
37937;SDS011;23763;48.130;11.602;2022-10-17T10:12:34;8.23;;;7.53;;
37937;SDS011;23763;48.130;11.602;2022-10-17T10:15:11;8.35;;;7.25;;
37937;SDS011;23763;48.130;11.602;2022-10-17T10:17:56;8.20;;;7.65;;
37937;SDS011;23763;48.130;11.602;2022-10-17T10:25:37;8.38;;;7.78;;
37937;SDS011;23763;48.130;11.602;2022-10-17T10:28:13;7.47;;;6.88;;
37937;SDS011;23763;48.130;11.602;2022-10-17T10:30:44;7.93;;;7.32;;
37937;SDS011;23763;48.130;11.602;2022-10-17T10:33:12;7.22;;;6.72;;
37937;SDS011;23763;48.130;11.602;2022-10-17T10:35:38;7.47;;;6.97;;
37937;SDS011;23763;48.130;11.602;2022-10-17T10:38:07;8.05;;;7.55;;
37937;SDS011;23763;48.130;11.602;2022-10-17T10:40:54;6.90;;;6.50;;
37937;SDS011;23763;48.130;11.602;2022-10-17T10:46:04;7.38;;;6.80;;
37937;SDS011;23763;48.130;11.602;2022-10-17T10:48:48;7.80;;;7.30;;
37937;SDS011;23763;48.130;11.602;2022-10-17T10:51:16;7.30;;;6.78;;
37937;SDS011;23763;48.130;11.602;2022-10-17T10:56:20;7.90;;;7.13;;
37937;SDS011;23763;48.130;11.602;2022-10-17T10:59:04;6.95;;;6.53;;
37937;SDS011;23763;48.130;11.602;2022-10-17T11:04:22;6.80;;;6.45;;
37937;SDS011;23763;48.130;11.602;2022-10-17T11:07:29;7.63;;;7.00;;
37937;SDS011;23763;48.130;11.602;2022-10-17T11:10:14;6.93;;;6.53;;
37937;SDS011;23763;48.130;11.602;2022-10-17T11:17:58;7.13;;;6.72;;
37937;SDS011;23763;48.130;11.602;2022-10-17T11:20:35;7.28;;;6.30;;
37937;SDS011;23763;48.130;11.602;2022-10-17T11:23:27;7.72;;;7.22;;
37937;SDS011;23763;48.130;11.602;2022-10-17T11:26:04;8.10;;;7.35;;
37937;SDS011;23763;48.130;11.602;2022-10-17T11:28:35;8.13;;;7.40;;
37937;SDS011;23763;48.130;11.602;2022-10-17T11:31:02;7.53;;;7.05;;
37937;SDS011;23763;48.130;11.602;2022-10-17T11:33:43;7.55;;;6.95;;
37937;SDS011;23763;48.130;11.602;2022-10-17T11:36:17;8.10;;;7.38;;
37937;SDS011;23763;48.130;11.602;2022-10-17T11:39:05;7.78;;;7.18;;
37937;SDS011;23763;48.130;11.602;2022-10-17T11:41:45;7.45;;;6.60;;
37937;SDS011;23763;48.130;11.602;2022-10-17T11:44:24;7.13;;;6.50;;
37937;SDS011;23763;48.130;11.602;2022-10-17T11:47:23;7.05;;;6.75;;
37937;SDS011;23763;48.130;11.602;2022-10-17T11:49:53;7.22;;;6.75;;
37937;SDS011;23763;48.130;11.602;2022-10-17T11:55:16;7.55;;;6.95;;
37937;SDS011;23763;48.130;11.602;2022-10-17T12:00:53;7.10;;;6.70;;
37937;SDS011;23763;48.130;11.602;2022-10-17T12:11:44;7.05;;;6.65;;
37937;SDS011;23763;48.130;11.602;2022-10-17T12:19:51;7.28;;;6.68;;
37937;SDS011;23763;48.130;11.602;2022-10-17T12:24:55;6.55;;;6.18;;
37937;SDS011;23763;48.130;11.602;2022-10-17T12:27:42;6.78;;;6.45;;
37937;SDS011;23763;48.130;11.602;2022-10-17T12:35:27;6.13;;;5.72;;
37937;SDS011;23763;48.130;11.602;2022-10-17T12:43:01;6.88;;;6.38;;
37937;SDS011;23763;48.130;11.602;2022-10-17T12:56:01;6.80;;;6.40;;
37937;SDS011;23763;48.130;11.602;2022-10-17T12:58:27;6.40;;;6.00;;
37937;SDS011;23763;48.130;11.602;2022-10-17T13:00:55;6.07;;;5.68;;
37937;SDS011;23763;48.130;11.602;2022-10-17T13:03:23;6.82;;;6.43;;
37937;SDS011;23763;48.130;11.602;2022-10-17T13:05:53;6.25;;;5.80;;
37937;SDS011;23763;48.130;11.602;2022-10-17T13:08:26;6.45;;;5.70;;
37937;SDS011;23763;48.130;11.602;2022-10-17T13:11:08;6.60;;;6.10;;
37937;SDS011;23763;48.130;11.602;2022-10-17T13:16:26;7.00;;;6.40;;
37937;SDS011;23763;48.130;11.602;2022-10-17T13:18:53;5.95;;;5.55;;
37937;SDS011;23763;48.130;11.602;2022-10-17T13:21:19;6.13;;;5.82;;
37937;SDS011;23763;48.130;11.602;2022-10-17T13:23:45;6.38;;;6.00;;
37937;SDS011;23763;48.130;11.602;2022-10-17T13:26:14;6.53;;;6.18;;
37937;SDS011;23763;48.130;11.602;2022-10-17T13:28:45;6.78;;;6.47;;
37937;SDS011;23763;48.130;11.602;2022-10-17T13:33:59;6.25;;;5.95;;
37937;SDS011;23763;48.130;11.602;2022-10-17T13:36:26;9.50;;;8.60;;
37937;SDS011;23763;48.130;11.602;2022-10-17T13:38:53;6.90;;;6.50;;
37937;SDS011;23763;48.130;11.602;2022-10-17T13:41:24;6.72;;;6.32;;
37937;SDS011;23763;48.130;11.602;2022-10-17T13:43:54;7.22;;;6.72;;
37937;SDS011;23763;48.130;11.602;2022-10-17T13:46:24;6.97;;;6.30;;
37937;SDS011;23763;48.130;11.602;2022-10-17T13:48:53;6.63;;;6.22;;
37937;SDS011;23763;48.130;11.602;2022-10-17T13:51:21;6.57;;;6.20;;
37937;SDS011;23763;48.130;11.602;2022-10-17T13:53:48;7.07;;;6.57;;
37937;SDS011;23763;48.130;11.602;2022-10-17T13:56:21;7.80;;;7.30;;
37937;SDS011;23763;48.130;11.602;2022-10-17T13:58:53;7.40;;;6.78;;
37937;SDS011;23763;48.130;11.602;2022-10-17T14:01:22;6.65;;;6.25;;
37937;SDS011;23763;48.130;11.602;2022-10-17T14:03:49;6.68;;;6.18;;
37937;SDS011;23763;48.130;11.602;2022-10-17T14:06:19;6.55;;;5.95;;
37937;SDS011;23763;48.130;11.602;2022-10-17T14:08:47;6.88;;;6.28;;
37937;SDS011;23763;48.130;11.602;2022-10-17T14:11:16;7.00;;;6.60;;
37937;SDS011;23763;48.130;11.602;2022-10-17T14:14:03;6.70;;;6.30;;
37937;SDS011;23763;48.130;11.602;2022-10-17T14:16:49;9.52;;;7.00;;
37937;SDS011;23763;48.130;11.602;2022-10-17T14:21:52;7.05;;;6.40;;
37937;SDS011;23763;48.130;11.602;2022-10-17T14:26:52;7.40;;;6.90;;
37937;SDS011;23763;48.130;11.602;2022-10-17T14:29:30;6.93;;;6.43;;
37937;SDS011;23763;48.130;11.602;2022-10-17T14:32:13;7.10;;;6.50;;
37937;SDS011;23763;48.130;11.602;2022-10-17T14:34:41;7.10;;;6.43;;
37937;SDS011;23763;48.130;11.602;2022-10-17T14:37:29;6.35;;;5.95;;
37937;SDS011;23763;48.130;11.602;2022-10-17T14:40:02;9.25;;;8.43;;
37937;SDS011;23763;48.130;11.602;2022-10-17T14:42:30;7.30;;;6.70;;
37937;SDS011;23763;48.130;11.602;2022-10-17T14:45:06;7.30;;;6.90;;
37937;SDS011;23763;48.130;11.602;2022-10-17T14:47:33;11.55;;;7.18;;
37937;SDS011;23763;48.130;11.602;2022-10-17T14:50:32;7.53;;;6.75;;
37937;SDS011;23763;48.130;11.602;2022-10-17T14:53:05;8.05;;;7.43;;
37937;SDS011;23763;48.130;11.602;2022-10-17T14:55:35;7.20;;;6.30;;
37937;SDS011;23763;48.130;11.602;2022-10-17T14:58:14;7.05;;;6.65;;
37937;SDS011;23763;48.130;11.602;2022-10-17T15:00:41;6.30;;;6.00;;
37937;SDS011;23763;48.130;11.602;2022-10-17T15:03:06;9.02;;;8.32;;
37937;SDS011;23763;48.130;11.602;2022-10-17T15:05:33;9.93;;;9.13;;
37937;SDS011;23763;48.130;11.602;2022-10-17T15:07:59;7.00;;;6.57;;
37937;SDS011;23763;48.130;11.602;2022-10-17T15:10:31;6.38;;;6.07;;
37937;SDS011;23763;48.130;11.602;2022-10-17T15:12:59;7.18;;;6.78;;
37937;SDS011;23763;48.130;11.602;2022-10-17T15:15:28;11.25;;;10.32;;
37937;SDS011;23763;48.130;11.602;2022-10-17T15:17:55;8.50;;;7.90;;
37937;SDS011;23763;48.130;11.602;2022-10-17T15:20:21;6.97;;;6.57;;
37937;SDS011;23763;48.130;11.602;2022-10-17T15:22:51;6.57;;;5.90;;
37937;SDS011;23763;48.130;11.602;2022-10-17T15:25:24;6.80;;;6.38;;
37937;SDS011;23763;48.130;11.602;2022-10-17T15:27:50;11.30;;;10.20;;
37937;SDS011;23763;48.130;11.602;2022-10-17T15:30:21;11.57;;;8.60;;
37937;SDS011;23763;48.130;11.602;2022-10-17T15:32:52;8.45;;;7.85;;
37937;SDS011;23763;48.130;11.602;2022-10-17T15:35:18;28.70;;;15.98;;
37937;SDS011;23763;48.130;11.602;2022-10-17T15:37:45;10.30;;;9.40;;
37937;SDS011;23763;48.130;11.602;2022-10-17T15:40:15;8.70;;;8.10;;
37937;SDS011;23763;48.130;11.602;2022-10-17T15:42:44;9.63;;;8.75;;
37937;SDS011;23763;48.130;11.602;2022-10-17T15:45:10;8.68;;;7.97;;
37937;SDS011;23763;48.130;11.602;2022-10-17T15:47:39;7.80;;;7.22;;
37937;SDS011;23763;48.130;11.602;2022-10-17T15:50:05;9.27;;;8.43;;
37937;SDS011;23763;48.130;11.602;2022-10-17T15:52:33;9.38;;;8.50;;
37937;SDS011;23763;48.130;11.602;2022-10-17T15:54:59;9.80;;;8.90;;
37937;SDS011;23763;48.130;11.602;2022-10-17T15:57:26;13.70;;;10.05;;
37937;SDS011;23763;48.130;11.602;2022-10-17T15:59:54;11.00;;;9.75;;
37937;SDS011;23763;48.130;11.602;2022-10-17T16:02:21;8.02;;;7.25;;
37937;SDS011;23763;48.130;11.602;2022-10-17T16:04:48;9.35;;;8.45;;
37937;SDS011;23763;48.130;11.602;2022-10-17T16:07:15;9.07;;;8.15;;
37937;SDS011;23763;48.130;11.602;2022-10-17T16:09:42;8.13;;;7.45;;
37937;SDS011;23763;48.130;11.602;2022-10-17T16:12:19;10.85;;;8.23;;
37937;SDS011;23763;48.130;11.602;2022-10-17T16:14:50;9.57;;;8.55;;
37937;SDS011;23763;48.130;11.602;2022-10-17T16:17:16;11.18;;;8.68;;
37937;SDS011;23763;48.130;11.602;2022-10-17T16:19:42;15.25;;;9.73;;
37937;SDS011;23763;48.130;11.602;2022-10-17T16:22:11;13.70;;;9.35;;
37937;SDS011;23763;48.130;11.602;2022-10-17T16:24:57;11.88;;;9.98;;
37937;SDS011;23763;48.130;11.602;2022-10-17T16:27:31;13.50;;;9.50;;
37937;SDS011;23763;48.130;11.602;2022-10-17T16:29:57;11.48;;;10.23;;
37937;SDS011;23763;48.130;11.602;2022-10-17T16:32:22;10.85;;;9.95;;
37937;SDS011;23763;48.130;11.602;2022-10-17T16:34:48;11.98;;;9.65;;
37937;SDS011;23763;48.130;11.602;2022-10-17T16:37:13;11.02;;;9.68;;
37937;SDS011;23763;48.130;11.602;2022-10-17T16:39:39;10.85;;;9.38;;
37937;SDS011;23763;48.130;11.602;2022-10-17T16:42:05;10.10;;;8.98;;
37937;SDS011;23763;48.130;11.602;2022-10-17T16:44:30;13.40;;;8.88;;
37937;SDS011;23763;48.130;11.602;2022-10-17T16:46:56;9.95;;;8.68;;
37937;SDS011;23763;48.130;11.602;2022-10-17T16:49:22;9.98;;;9.10;;
37937;SDS011;23763;48.130;11.602;2022-10-17T16:51:47;10.32;;;9.23;;
37937;SDS011;23763;48.130;11.602;2022-10-17T16:54:13;9.15;;;8.25;;
37937;SDS011;23763;48.130;11.602;2022-10-17T16:56:38;10.48;;;9.48;;
37937;SDS011;23763;48.130;11.602;2022-10-17T16:59:06;11.52;;;10.20;;
37937;SDS011;23763;48.130;11.602;2022-10-17T17:01:31;13.27;;;11.30;;
37937;SDS011;23763;48.130;11.602;2022-10-17T17:03:57;15.32;;;11.75;;
37937;SDS011;23763;48.130;11.602;2022-10-17T17:06:27;13.88;;;10.98;;